Terminal Aerodrome Forecast
Issued by NWS

Home | Current Version | Previous Version | Text Only | Print | Product List | Glossary On
Versions: 1 2 3 4 5 6 7 8 9 10 11 12 13 14 15
479
FTUS42 KTBW 280520
TAFPIE
TAF
KPIE 280520Z 2806/2906 06004KT P6SM VCTS SCT035CB BKN250
     FM280700 VRB03KT P6SM SCT035 SCT250
     FM281000 VRB03KT P6SM FEW250
     FM281500 10008KT P6SM SCT030
     FM282000 26007KT P6SM VCTS SCT035CB SCT250=

USA.gov is the U.S. government's official web portal to all federal, state and local government web resources and services.